createdAt,value
2018-02-09T00:03:00.003Z,59.40
2018-02-09T00:07:43.590Z,66.83
2018-02-09T00:12:26.905Z,57.10
2018-02-09T00:17:10.271Z,64.33
2018-02-09T00:21:53.587Z,68.90
2018-02-09T00:26:36.918Z,58.43
2018-02-09T00:31:20.265Z,58.63
2018-02-09T00:36:03.855Z,60.43
2018-02-09T00:40:47.964Z,64.40
2018-02-09T00:45:31.298Z,60.83
2018-02-09T00:50:14.662Z,58.77
2018-02-09T00:54:58.025Z,55.73
2018-02-09T00:59:41.353Z,63.03
2018-02-09T01:04:25.735Z,59.83
2018-02-09T01:09:09.819Z,60.33
2018-02-09T01:13:53.195Z,56.07
2018-02-09T01:18:36.594Z,63.73
2018-02-09T01:23:19.913Z,58.87
2018-02-09T01:28:03.252Z,62.30
2018-02-09T01:32:46.826Z,60.23
2018-02-09T01:37:30.238Z,58.87
2018-02-09T01:42:13.638Z,57.17
2018-02-09T01:46:57.023Z,54.33
2018-02-09T01:51:40.394Z,54.53
2018-02-09T01:56:23.744Z,58.97
2018-02-09T02:01:07.071Z,53.63
2018-02-09T02:05:50.770Z,53.20
2018-02-09T02:10:34.079Z,53.57
2018-02-09T02:15:17.412Z,56.53
2018-02-09T02:20:00.740Z,59.43
2018-02-09T02:24:44.355Z,54.17
2018-02-09T02:29:27.765Z,53.80
2018-02-09T02:34:11.210Z,52.77
2018-02-09T02:38:54.597Z,54.23
2018-02-09T02:43:38.038Z,52.07
2018-02-09T02:48:21.399Z,54.50
2018-02-09T02:53:04.971Z,53.40
2018-02-09T02:57:48.283Z,49.47
2018-02-09T03:02:31.629Z,55.70
2018-02-09T03:07:14.971Z,53.07
2018-02-09T03:11:58.306Z,56.13
2018-02-09T03:16:41.651Z,53.20
2018-02-09T03:21:25.008Z,58.83
2018-02-09T03:26:08.624Z,53.57
2018-02-09T03:30:52.675Z,61.73
2018-02-09T03:35:36.014Z,65.97
2018-02-09T03:40:19.348Z,62.57
2018-02-09T03:45:03.440Z,74.13
2018-02-09T03:49:46.760Z,75.40
2018-02-09T03:54:30.394Z,72.77
2018-02-09T03:59:13.730Z,74.87
2018-02-09T04:03:57.880Z,67.47
2018-02-09T04:08:41.202Z,72.93
2018-02-09T04:13:24.573Z,67.77
2018-02-09T04:18:08.735Z,65.93
2018-02-09T04:22:52.841Z,71.43
2018-02-09T04:27:36.130Z,67.40
2018-02-09T04:32:20.214Z,64.87
2018-02-09T04:37:03.557Z,59.47
2018-02-09T04:41:46.934Z,66.87
2018-02-09T04:46:30.263Z,64.70
2018-02-09T04:51:13.867Z,67.50
2018-02-09T04:55:57.926Z,62.37
2018-02-09T05:00:41.251Z,67.87
2018-02-09T05:05:24.634Z,74.83
2018-02-09T05:10:07.978Z,56.57
2018-02-09T05:14:51.304Z,69.43
2018-02-09T05:19:34.932Z,59.33
2018-02-09T05:24:18.241Z,68.70
2018-02-09T05:29:01.578Z,74.10
2018-02-09T05:33:44.920Z,67.73
2018-02-09T05:38:28.263Z,80.07
2018-02-09T05:43:11.595Z,68.60
2018-02-09T05:47:55.234Z,61.03
2018-02-09T05:52:38.541Z,68.50
2018-02-09T05:57:21.872Z,74.00
2018-02-09T06:02:05.219Z,61.97
2018-02-09T06:06:48.567Z,60.90
2018-02-09T06:11:31.920Z,63.53
2018-02-09T06:16:15.509Z,78.00
2018-02-09T06:20:58.816Z,71.00
2018-02-09T06:25:42.168Z,70.80
2018-02-09T06:30:25.500Z,65.53
2018-02-09T06:35:08.834Z,72.40
2018-02-09T06:39:52.165Z,70.90
2018-02-09T06:44:35.556Z,68.33
2018-02-09T06:49:19.931Z,72.97
2018-02-09T06:54:03.218Z,74.53
2018-02-09T06:58:46.583Z,74.37
2018-02-09T07:03:29.907Z,93.97
2018-02-09T07:08:13.296Z,82.27
2018-02-09T07:12:57.365Z,89.87
2018-02-09T07:17:41.030Z,84.60
2018-02-09T07:22:24.344Z,100.83
2018-02-09T07:27:07.670Z,98.17
2018-02-09T07:31:51.053Z,115.33
2018-02-09T07:36:34.408Z,100.07
2018-02-09T07:41:18.550Z,81.57
2018-02-09T07:46:01.880Z,70.47
2018-02-09T07:50:45.512Z,69.43
2018-02-09T07:55:29.650Z,97.67
2018-02-09T08:00:13.761Z,127.27
2018-02-09T08:04:57.120Z,123.07
2018-02-09T08:09:40.499Z,114.67
2018-02-09T08:14:24.597Z,74.03
2018-02-09T08:19:07.927Z,68.43
2018-02-09T08:23:51.274Z,59.33
2018-02-09T08:28:34.661Z,58.13
2018-02-09T08:33:17.977Z,67.07
2018-02-09T08:38:01.309Z,74.93
2018-02-09T08:42:44.627Z,73.73
2018-02-09T08:47:28.297Z,61.57
2018-02-09T08:52:11.607Z,56.57
2018-02-09T08:56:55.011Z,49.43
2018-02-09T09:01:39.154Z,54.70
2018-02-09T09:06:22.589Z,59.50
2018-02-09T09:11:05.959Z,54.97
2018-02-09T09:15:49.310Z,44.87
2018-02-09T09:20:32.638Z,46.03
2018-02-09T09:25:16.027Z,43.53
2018-02-09T09:29:59.395Z,51.20
2018-02-09T09:34:42.805Z,50.00
2018-02-09T09:39:26.204Z,49.03
2018-02-09T09:44:09.548Z,48.47
2018-02-09T09:48:53.754Z,39.47
2018-02-09T09:53:37.150Z,43.27
2018-02-09T09:58:20.509Z,43.03
2018-02-09T10:03:03.906Z,48.17
2018-02-09T10:07:47.322Z,57.97
2018-02-09T10:12:30.697Z,53.63
2018-02-09T10:17:14.087Z,55.50
2018-02-09T10:21:57.416Z,49.93
2018-02-09T10:26:40.836Z,49.83
2018-02-09T10:31:24.190Z,47.27
2018-02-09T10:36:08.402Z,50.13
2018-02-09T10:40:51.762Z,46.37
2018-02-09T10:45:35.147Z,48.80
2018-02-09T10:50:18.583Z,60.70
2018-02-09T10:55:02.024Z,51.97
2018-02-09T10:59:46.268Z,51.23
2018-02-09T11:04:30.387Z,49.90
2018-02-09T11:09:13.888Z,49.27
2018-02-09T11:13:57.959Z,44.20
2018-02-09T11:18:41.369Z,49.57
2018-02-09T11:23:24.805Z,42.73
2018-02-09T11:28:08.323Z,45.53
2018-02-09T11:32:52.570Z,49.87
2018-02-09T11:37:36.029Z,45.33
2018-02-09T11:42:19.368Z,43.73
2018-02-09T11:47:02.749Z,49.03
2018-02-09T11:51:46.880Z,53.00
2018-02-09T11:56:30.267Z,45.10
2018-02-09T12:01:13.620Z,44.10
2018-02-09T12:05:57.055Z,44.40
2018-02-09T12:10:40.436Z,50.53
2018-02-09T12:15:23.956Z,50.37
2018-02-09T12:20:07.305Z,48.13
2018-02-09T12:24:50.684Z,45.53
2018-02-09T12:29:34.858Z,50.27
2018-02-09T12:34:18.221Z,45.43
2018-02-09T12:39:01.671Z,47.27
2018-02-09T12:43:45.098Z,48.37
2018-02-09T12:48:28.429Z,51.43
2018-02-09T12:53:11.799Z,53.70
2018-02-09T12:57:55.247Z,47.20
2018-02-09T13:02:38.631Z,47.67
2018-02-09T13:07:22.007Z,49.10
2018-02-09T13:12:05.372Z,47.33
2018-02-09T13:16:49.348Z,49.03
2018-02-09T13:21:33.507Z,46.00
2018-02-09T13:26:32.068Z,49.43
2018-02-09T13:36:45.765Z,45.73
2018-02-09T13:41:29.450Z,49.33
2018-02-09T14:05:13.207Z,49.93
2018-02-09T14:09:56.643Z,50.90
2018-02-09T14:14:40.104Z,45.27
2018-02-09T14:19:23.765Z,54.13
2018-02-09T14:24:07.329Z,53.03
2018-02-09T14:28:50.747Z,54.73
2018-02-09T14:38:50.245Z,54.20
2018-02-09T14:43:33.672Z,52.77
2018-02-09T14:48:17.076Z,54.40
2018-02-09T14:53:00.638Z,48.80
2018-02-09T14:57:44.843Z,53.53
2018-02-09T15:02:28.289Z,57.43
2018-02-09T15:07:14.092Z,55.43
2018-02-09T15:11:57.770Z,61.40
2018-02-09T15:16:41.350Z,56.83
2018-02-09T15:21:24.844Z,56.20
2018-02-09T15:26:08.586Z,53.50
2018-02-09T15:30:52.008Z,58.63
2018-02-09T15:35:35.352Z,62.10
2018-02-09T15:40:18.935Z,62.60
2018-02-09T15:45:03.133Z,60.33
2018-02-09T15:49:46.588Z,71.27
2018-02-09T15:54:30.803Z,60.93
2018-02-09T15:59:15.324Z,71.97
2018-02-09T16:03:58.943Z,68.60
2018-02-09T16:08:43.034Z,70.87
2018-02-09T16:13:26.386Z,68.03
2018-02-09T16:18:09.725Z,65.20
2018-02-09T16:22:53.048Z,74.57
2018-02-09T16:27:36.448Z,75.13
2018-02-09T16:32:19.845Z,76.80
2018-02-09T16:37:03.199Z,81.43
2018-02-09T16:41:47.051Z,76.57
2018-02-09T16:46:30.653Z,80.93
2018-02-09T16:51:14.091Z,72.87
2018-02-09T16:55:57.557Z,77.20
2018-02-09T17:00:41.048Z,80.60
2018-02-09T17:05:25.234Z,78.10
2018-02-09T17:10:08.610Z,83.63
2018-02-09T17:14:52.456Z,75.57
2018-02-09T17:19:36.054Z,81.70
2018-02-09T17:24:19.567Z,75.83
2018-02-09T17:29:02.975Z,84.33
2018-02-09T17:33:46.368Z,84.47
2018-02-09T17:38:29.765Z,77.87
2018-02-09T17:43:13.184Z,90.80
2018-02-09T17:47:57.393Z,76.50
2018-02-09T17:52:40.767Z,82.93
2018-02-09T17:57:45.614Z,84.30
2018-02-09T18:02:29.873Z,94.20
2018-02-09T18:07:13.353Z,77.57
2018-02-09T18:11:56.823Z,83.63
2018-02-09T18:16:40.268Z,91.87
2018-02-09T18:21:23.655Z,90.93
2018-02-09T18:26:07.832Z,91.60
2018-02-09T18:30:51.261Z,100.10
2018-02-09T18:35:35.546Z,92.97
2018-02-09T18:40:19.911Z,92.10
2018-02-09T18:45:03.329Z,94.60
2018-02-09T18:49:48.425Z,99.50
2018-02-09T18:54:33.339Z,102.60
2018-02-09T18:59:16.803Z,101.77
2018-02-09T19:04:00.949Z,91.80
2018-02-09T19:08:50.391Z,80.00
2018-02-09T19:13:35.059Z,100.00
2018-02-09T19:18:19.365Z,96.80
2018-02-09T19:23:20.919Z,99.17
2018-02-09T19:28:05.536Z,96.27
2018-02-09T19:32:49.861Z,77.03
2018-02-09T19:37:33.396Z,95.00
2018-02-09T19:42:58.969Z,87.53
2018-02-09T19:47:42.765Z,84.47
2018-02-09T19:52:34.035Z,86.73
2018-02-09T19:57:18.411Z,83.93
2018-02-09T20:02:02.065Z,88.13
2018-02-09T20:06:45.537Z,90.20
2018-02-09T20:11:29.071Z,82.30
2018-02-09T20:16:12.506Z,87.60
2018-02-09T20:20:56.956Z,99.77
2018-02-09T20:25:42.308Z,85.10
2018-02-09T20:30:25.797Z,96.90
2018-02-09T20:35:10.784Z,92.63
2018-02-09T20:39:54.343Z,91.40
2018-02-09T20:44:38.037Z,89.87
2018-02-09T20:49:21.404Z,102.07
2018-02-09T20:54:05.610Z,91.30
2018-02-09T20:58:49.326Z,90.23
2018-02-09T21:03:33.000Z,97.67
2018-02-09T21:08:16.501Z,97.13
2018-02-09T21:13:00.964Z,97.97
2018-02-09T21:17:45.522Z,96.10
2018-02-09T21:22:28.860Z,90.27
2018-02-09T21:27:12.259Z,91.77
2018-02-09T21:31:56.372Z,97.37
2018-02-09T21:36:39.765Z,100.63
2018-02-09T21:41:23.110Z,113.03
2018-02-09T21:46:06.436Z,111.43
2018-02-09T21:50:49.799Z,110.63
2018-02-09T21:55:33.129Z,116.83
2018-02-09T22:00:16.516Z,106.83
2018-02-09T22:04:59.950Z,93.60
2018-02-09T22:09:43.267Z,103.73
2018-02-09T22:14:26.652Z,107.00
2018-02-09T22:19:09.978Z,106.53
2018-02-09T22:23:53.355Z,99.77
2018-02-09T22:28:37.471Z,102.37
2018-02-09T22:33:20.932Z,100.97
2018-02-09T22:38:04.268Z,102.27
2018-02-09T22:42:48.383Z,97.33
2018-02-09T22:47:31.705Z,119.80
2018-02-09T22:52:15.044Z,114.13
2018-02-09T22:56:58.394Z,108.60
2018-02-09T23:01:41.718Z,110.80
2018-02-09T23:06:25.126Z,108.10
2018-02-09T23:11:08.477Z,106.67
2018-02-09T23:15:52.582Z,101.27
2018-02-09T23:20:35.948Z,96.57
2018-02-09T23:25:20.006Z,101.73
2018-02-09T23:30:03.369Z,101.93
2018-02-09T23:34:46.686Z,98.63
2018-02-09T23:39:30.145Z,90.27
2018-02-09T23:44:13.450Z,94.33
2018-02-09T23:48:56.813Z,98.87
2018-02-09T23:53:40.133Z,88.00
2018-02-09T23:58:23.487Z,93.33
